Time;durP1;ratioP1;P1;durP2;ratioP2;P2;SDS_P1;SDS_P2;PMS_P1;PMS_P2;Temp;Humidity;BMP_temperature;BMP_pressure;BME280_temperature;BME280_humidity;BME280_pressure;Samples;Min_cycle;Max_cycle;Signal;HPM_P1;HPM_P2
2021/06/17 00:01:06;;;;;;;4.03;3.73;;;20.80;99.90;;;;;;5056839;28;20452;-82
2021/06/17 00:03:33;;;;;;;5.87;4.10;;;20.80;99.90;;;;;;5057131;28;20445;-83
2021/06/17 00:05:59;;;;;;;5.60;4.33;;;20.80;99.90;;;;;;5057365;28;20533;-82
2021/06/17 00:08:26;;;;;;;5.60;4.53;;;20.80;99.90;;;;;;5058713;28;20473;-83
2021/06/17 00:10:53;;;;;;;11.37;5.20;;;20.70;99.90;;;;;;5058909;28;20445;-84
2021/06/17 00:13:24;;;;;;;5.50;5.10;;;20.80;99.90;;;;;;5058716;28;20525;-84
2021/06/17 00:15:53;;;;;;;7.30;5.67;;;20.70;99.90;;;;;;5058791;28;20430;-83
2021/06/17 00:18:20;;;;;;;5.07;4.57;;;20.70;99.90;;;;;;5057554;28;20470;-84
2021/06/17 00:20:47;;;;;;;7.17;5.30;;;20.70;99.90;;;;;;5057065;28;20772;-84
2021/06/17 00:23:14;;;;;;;5.37;4.67;;;20.60;99.90;;;;;;5056329;28;20446;-83
2021/06/17 00:25:42;;;;;;;5.27;4.77;;;20.60;99.90;;;;;;5057447;28;20437;-84
2021/06/17 00:28:09;;;;;;;4.77;4.40;;;20.60;99.90;;;;;;5058015;28;20548;-84
2021/06/17 00:30:38;;;;;;;11.60;5.20;;;20.60;99.90;;;;;;5058861;28;20544;-84
2021/06/17 00:33:05;;;;;;;4.80;4.50;;;20.60;99.90;;;;;;5057193;28;20543;-84
2021/06/17 00:35:32;;;;;;;5.77;5.23;;;20.50;99.90;;;;;;5057147;28;20519;-84
2021/06/17 00:38:00;;;;;;;6.60;5.63;;;20.50;99.90;;;;;;5056850;28;20509;-84
2021/06/17 00:40:28;;;;;;;5.83;5.43;;;20.50;99.90;;;;;;5056629;28;20450;-84
2021/06/17 00:42:56;;;;;;;13.93;5.60;;;20.50;99.90;;;;;;5056673;28;20476;-84
2021/06/17 00:45:25;;;;;;;5.67;5.17;;;20.50;99.90;;;;;;5056763;28;20450;-84
2021/06/17 00:47:53;;;;;;;7.00;5.73;;;20.40;99.90;;;;;;5057173;28;20461;-84
2021/06/17 00:50:21;;;;;;;5.67;5.37;;;20.40;99.90;;;;;;5057305;28;20446;-83
2021/06/17 00:52:49;;;;;;;6.13;5.13;;;20.40;99.90;;;;;;5056328;28;20470;-84
2021/06/17 00:55:16;;;;;;;20.90;15.03;;;20.40;99.90;;;;;;5056015;28;20990;-84
2021/06/17 00:57:42;;;;;;;10.30;9.30;;;20.40;99.90;;;;;;5056444;28;21003;-84
2021/06/17 01:00:12;;;;;;;7.43;6.60;;;20.40;99.90;;;;;;5056385;28;20549;-84
2021/06/17 01:02:39;;;;;;;7.27;6.40;;;20.40;99.90;;;;;;5057708;28;20472;-84
2021/06/17 01:05:08;;;;;;;6.17;5.67;;;20.40;99.90;;;;;;5057600;28;20481;-84
2021/06/17 01:07:40;;;;;;;5.80;5.20;;;20.40;99.90;;;;;;5057154;28;20473;-84
2021/06/17 01:10:13;;;;;;;7.80;6.70;;;20.30;99.90;;;;;;5057499;28;20516;-84
2021/06/17 01:12:54;;;;;;;7.10;6.43;;;20.30;99.90;;;;;;5057005;28;20473;-84
2021/06/17 01:15:22;;;;;;;6.70;6.10;;;20.30;99.90;;;;;;5062246;28;20426;-83
2021/06/17 01:17:54;;;;;;;6.70;6.10;;;20.20;99.90;;;;;;5073781;28;20446;-83
2021/06/17 01:20:28;;;;;;;6.90;6.30;;;20.30;99.90;;;;;;5073914;28;20409;-82
2021/06/17 01:23:09;;;;;;;7.00;6.30;;;20.20;99.90;;;;;;5073039;28;20438;-83
2021/06/17 01:25:55;;;;;;;8.30;6.37;;;20.20;99.90;;;;;;5067216;28;20974;-84
2021/06/17 01:28:23;;;;;;;7.10;6.40;;;20.20;99.90;;;;;;5056894;28;20519;-84
2021/06/17 01:30:55;;;;;;;8.87;6.50;;;20.10;99.90;;;;;;5057422;28;20449;-83
2021/06/17 01:33:24;;;;;;;7.70;7.00;;;20.10;99.90;;;;;;5056960;28;20580;-84
2021/06/17 01:35:54;;;;;;;7.03;6.47;;;20.10;99.90;;;;;;5058877;28;20453;-83
2021/06/17 01:38:25;;;;;;;7.50;6.80;;;20.10;99.90;;;;;;5057383;28;20520;-84
2021/06/17 01:40:53;;;;;;;8.53;6.70;;;20.00;99.90;;;;;;5056498;28;20495;-84
2021/06/17 01:43:21;;;;;;;8.47;7.67;;;20.00;99.90;;;;;;5056032;28;20472;-84
2021/06/17 01:45:50;;;;;;;8.17;7.20;;;20.00;99.90;;;;;;5057698;28;20831;-84
2021/06/17 01:48:18;;;;;;;8.17;7.37;;;19.90;99.90;;;;;;5056868;28;20468;-84
2021/06/17 01:50:47;;;;;;;10.00;7.40;;;19.90;99.90;;;;;;5056214;28;20763;-84
2021/06/17 01:53:16;;;;;;;8.20;7.23;;;19.90;99.90;;;;;;5056165;28;20546;-84
2021/06/17 01:55:45;;;;;;;7.50;6.80;;;19.80;99.90;;;;;;5059032;28;20429;-83
2021/06/17 01:58:15;;;;;;;8.33;7.53;;;19.80;99.90;;;;;;5060491;28;20465;-84
2021/06/17 02:00:44;;;;;;;7.23;6.63;;;19.80;99.90;;;;;;5059386;28;20449;-84
2021/06/17 02:03:13;;;;;;;8.23;7.07;;;19.80;99.90;;;;;;5059003;28;20819;-84
2021/06/17 02:05:41;;;;;;;9.00;7.90;;;19.70;99.90;;;;;;5058624;28;20441;-84
2021/06/17 02:08:09;;;;;;;9.07;8.13;;;19.70;99.90;;;;;;5064142;28;20477;-83
2021/06/17 02:10:38;;;;;;;10.40;8.27;;;19.70;99.90;;;;;;5071184;28;20445;-83
2021/06/17 02:13:05;;;;;;;10.37;8.30;;;19.70;99.90;;;;;;5074255;28;20497;-83
2021/06/17 02:15:32;;;;;;;10.90;8.20;;;19.60;99.90;;;;;;5071411;28;20876;-84
2021/06/17 02:18:00;;;;;;;8.13;7.30;;;19.70;99.90;;;;;;5065324;28;20531;-84
2021/06/17 02:20:28;;;;;;;9.10;8.30;;;19.60;99.90;;;;;;5066228;28;20449;-84
2021/06/17 02:22:59;;;;;;;9.10;8.30;;;19.60;99.90;;;;;;5065476;28;20442;-84
2021/06/17 02:25:28;;;;;;;10.80;8.40;;;19.60;99.90;;;;;;5063234;28;20431;-84
2021/06/17 02:27:59;;;;;;;9.95;8.10;;;19.60;99.90;;;;;;5062852;28;20466;-84
2021/06/17 02:30:28;;;;;;;8.50;7.70;;;19.50;99.90;;;;;;5064448;28;20245;-84
2021/06/17 02:32:58;;;;;;;8.90;8.10;;;19.50;99.90;;;;;;5063422;28;20477;-84
2021/06/17 02:35:28;;;;;;;9.83;8.20;;;19.50;99.90;;;;;;5063895;28;20449;-84
2021/06/17 02:37:58;;;;;;;9.27;8.47;;;19.50;99.90;;;;;;5063545;28;20829;-84
2021/06/17 02:40:27;;;;;;;8.70;7.97;;;19.50;99.90;;;;;;5065410;28;20441;-83
2021/06/17 02:42:57;;;;;;;10.77;9.80;;;19.40;99.90;;;;;;5067140;28;20445;-83
2021/06/17 02:45:27;;;;;;;9.23;8.33;;;19.40;99.90;;;;;;5068433;28;20492;-83
2021/06/17 02:47:54;;;;;;;9.60;8.25;;;19.40;99.90;;;;;;5069895;28;20436;-83
2021/06/17 02:50:20;;;;;;;10.77;9.87;;;19.40;99.90;;;;;;5071785;28;20206;-83
2021/06/17 02:52:48;;;;;;;10.17;9.27;;;19.30;99.90;;;;;;5068028;28;20499;-83
2021/06/17 02:55:15;;;;;;;12.73;9.03;;;19.30;99.90;;;;;;5071823;28;20446;-82
2021/06/17 02:57:53;;;;;;;10.30;9.30;;;19.30;99.90;;;;;;5069469;28;20466;-83
2021/06/17 03:00:21;;;;;;;9.60;8.70;;;19.30;99.90;;;;;;5071373;28;20462;-83
2021/06/17 03:02:58;;;;;;;10.57;9.57;;;19.30;99.90;;;;;;5070036;28;20221;-83
2021/06/17 03:05:29;;;;;;;11.53;9.77;;;19.30;99.90;;;;;;5070156;28;20448;-83
2021/06/17 03:08:02;;;;;;;11.40;10.30;;;19.30;99.90;;;;;;5070842;28;20508;-84
2021/06/17 03:10:31;;;;;;;11.50;10.40;;;19.30;99.90;;;;;;5069727;28;20552;-83
2021/06/17 03:13:04;;;;;;;11.37;10.37;;;19.30;99.90;;;;;;5070196;28;20508;-83
2021/06/17 03:15:36;;;;;;;10.73;9.73;;;19.30;99.90;;;;;;5070034;28;20436;-84
2021/06/17 03:18:05;;;;;;;10.63;9.80;;;19.20;99.90;;;;;;5071645;28;20519;-83
2021/06/17 03:20:34;;;;;;;12.03;10.70;;;19.20;99.90;;;;;;5069059;28;20449;-83
2021/06/17 03:23:05;;;;;;;13.03;10.77;;;19.20;99.90;;;;;;5068357;28;20438;-83
2021/06/17 03:25:33;;;;;;;13.63;10.80;;;19.20;99.90;;;;;;5070407;28;20433;-83
2021/06/17 03:28:00;;;;;;;11.90;10.37;;;19.10;99.90;;;;;;5070158;28;20469;-83
2021/06/17 03:30:30;;;;;;;12.20;10.85;;;19.20;99.90;;;;;;5069686;28;20557;-82
2021/06/17 03:32:59;;;;;;;13.43;10.57;;;19.20;99.90;;;;;;5065086;28;20219;-83
2021/06/17 03:35:28;;;;;;;14.33;13.03;;;19.20;99.90;;;;;;5069151;28;20480;-83
2021/06/17 03:37:55;;;;;;;12.77;11.57;;;19.20;99.90;;;;;;5070374;28;20501;-83
2021/06/17 03:40:24;;;;;;;12.83;11.63;;;19.20;99.90;;;;;;5068671;28;20453;-83
2021/06/17 03:42:52;;;;;;;13.97;12.50;;;19.30;99.90;;;;;;5065923;28;20441;-83
2021/06/17 03:45:20;;;;;;;14.70;11.60;;;19.30;99.90;;;;;;5065063;28;20884;-83
2021/06/17 03:47:49;;;;;;;11.83;10.83;;;19.40;99.90;;;;;;5068988;28;20465;-83
2021/06/17 03:50:18;;;;;;;13.43;12.00;;;19.40;99.90;;;;;;5068692;28;20811;-83
2021/06/17 03:52:46;;;;;;;14.03;12.77;;;19.40;99.90;;;;;;5067529;28;20482;-83
2021/06/17 03:55:13;;;;;;;14.13;12.67;;;19.50;99.90;;;;;;5068299;28;20437;-82
2021/06/17 03:57:42;;;;;;;13.73;12.33;;;19.50;99.90;;;;;;5074838;28;20501;-83
2021/06/17 04:00:10;;;;;;;13.70;12.27;;;19.60;99.90;;;;;;5074393;28;20441;-83
2021/06/17 04:02:37;;;;;;;12.83;11.83;;;19.60;99.90;;;;;;5075526;28;20434;-83
2021/06/17 04:05:05;;;;;;;14.20;12.60;;;19.60;99.90;;;;;;5065681;28;20454;-84
2021/06/17 04:07:35;;;;;;;14.20;13.00;;;19.60;99.90;;;;;;5073491;22;21098;-80
2021/06/17 04:10:03;;;;;;;15.60;12.37;;;19.60;99.90;;;;;;5067872;28;20495;-80
2021/06/17 04:12:33;;;;;;;14.70;13.43;;;19.60;99.90;;;;;;5062087;28;20482;-80
2021/06/17 04:15:03;;;;;;;15.53;13.57;;;19.70;99.90;;;;;;5061633;28;20799;-81
2021/06/17 04:17:34;;;;;;;15.20;13.63;;;19.70;99.90;;;;;;5062273;28;20575;-80
2021/06/17 04:20:03;;;;;;;14.10;12.90;;;19.70;99.90;;;;;;5061373;28;20434;-81
2021/06/17 04:22:31;;;;;;;13.87;12.67;;;19.80;99.90;;;;;;5061538;28;20446;-81
2021/06/17 04:25:02;;;;;;;13.97;12.80;;;19.80;99.90;;;;;;5061299;28;20449;-81
2021/06/17 04:27:29;;;;;;;15.97;14.30;;;19.90;99.90;;;;;;5061696;28;20855;-82
2021/06/17 04:29:57;;;;;;;15.20;13.90;;;19.90;99.90;;;;;;5061351;28;20855;-81
2021/06/17 04:32:29;;;;;;;15.40;13.97;;;20.00;99.90;;;;;;5059860;28;20446;-81
2021/06/17 04:34:57;;;;;;;16.67;13.33;;;20.00;99.90;;;;;;5061514;28;20842;-82
2021/06/17 04:37:26;;;;;;;13.63;12.33;;;20.10;99.90;;;;;;5061841;28;20524;-82
2021/06/17 04:39:55;;;;;;;15.43;14.07;;;20.10;99.90;;;;;;5061449;28;20462;-81
2021/06/17 04:42:22;;;;;;;14.73;13.27;;;20.20;99.90;;;;;;5061830;28;20477;-81
2021/06/17 04:44:48;;;;;;;14.70;13.40;;;20.20;99.90;;;;;;5060872;28;20446;-83
2021/06/17 04:47:16;;;;;;;17.60;15.73;;;20.30;99.90;;;;;;5061101;28;20477;-81
2021/06/17 04:49:45;;;;;;;16.17;14.57;;;20.40;99.90;;;;;;5060865;28;20480;-81
2021/06/17 04:52:16;;;;;;;18.73;15.20;;;20.40;99.90;;;;;;5060333;28;20446;-81
2021/06/17 04:54:43;;;;;;;18.10;16.30;;;20.50;99.90;;;;;;5060027;28;20449;-81
2021/06/17 04:57:09;;;;;;;17.00;14.60;;;20.60;99.90;;;;;;5059742;28;20449;-82
2021/06/17 04:59:36;;;;;;;17.73;15.97;;;20.60;99.90;;;;;;5060361;28;20460;-82
2021/06/17 05:02:03;;;;;;;18.57;16.77;;;20.70;99.90;;;;;;5061060;28;20446;-80
2021/06/17 05:04:30;;;;;;;16.77;15.20;;;20.80;99.90;;;;;;5060242;28;20948;-82
2021/06/17 05:07:10;;;;;;;22.43;16.37;;;20.90;99.90;;;;;;5060291;28;20449;-80
2021/06/17 05:12:22;;;;;;;19.10;17.30;;;21.00;99.90;;;;;;5060449;28;20973;-80
2021/06/17 05:14:48;;;;;;;16.93;14.13;;;21.10;99.90;;;;;;5060131;28;20470;-80
2021/06/17 05:17:15;;;;;;;15.97;14.50;;;21.10;99.90;;;;;;5060688;28;20472;-80
2021/06/17 05:19:42;;;;;;;16.87;15.23;;;21.10;99.90;;;;;;5061048;28;20464;-81
2021/06/17 05:22:11;;;;;;;18.00;16.30;;;21.20;99.90;;;;;;5058976;28;20940;-80
2021/06/17 05:24:38;;;;;;;23.90;21.70;;;21.20;99.90;;;;;;5059163;28;20468;-82
2021/06/17 05:27:06;;;;;;;20.30;18.30;;;21.30;99.90;;;;;;5061734;28;20508;-81
2021/06/17 05:29:33;;;;;;;17.00;15.00;;;21.30;99.90;;;;;;5060399;28;20449;-81
2021/06/17 05:31:59;;;;;;;16.60;15.00;;;21.40;99.90;;;;;;5060990;28;20513;-80
2021/06/17 05:34:26;;;;;;;18.03;16.13;;;21.40;99.90;;;;;;5060397;28;20609;-81
2021/06/17 05:36:52;;;;;;;15.97;14.23;;;21.50;99.90;;;;;;5058953;28;20441;-81
2021/06/17 05:39:20;;;;;;;15.47;14.17;;;21.60;99.90;;;;;;5057064;28;20940;-81
2021/06/17 05:41:47;;;;;;;17.00;15.50;;;21.70;99.90;;;;;;5057392;28;20461;-81
2021/06/17 05:44:14;;;;;;;16.23;14.63;;;21.80;99.90;;;;;;5062352;28;20442;-80
2021/06/17 05:46:41;;;;;;;17.40;15.00;;;21.80;99.90;;;;;;5062051;28;20452;-81
2021/06/17 05:49:08;;;;;;;19.63;15.43;;;21.90;99.90;;;;;;5061780;28;20477;-81
2021/06/17 05:51:35;;;;;;;14.33;13.13;;;22.00;99.90;;;;;;5062631;28;20813;-81
2021/06/17 05:54:02;;;;;;;13.33;12.00;;;22.00;99.90;;;;;;5063828;28;20889;-81
2021/06/17 05:56:30;;;;;;;16.60;14.97;;;22.10;99.90;;;;;;5063816;28;20473;-81
2021/06/17 05:58:57;;;;;;;17.57;15.87;;;22.20;99.90;;;;;;5063300;28;20465;-81
2021/06/17 06:01:24;;;;;;;15.90;14.30;;;22.30;99.90;;;;;;5063573;28;20472;-82
2021/06/17 06:03:51;;;;;;;15.97;14.50;;;22.30;99.90;;;;;;5063223;28;20994;-81
2021/06/17 06:06:17;;;;;;;18.57;16.77;;;22.40;99.90;;;;;;5064928;28;20446;-82
2021/06/17 06:08:44;;;;;;;18.50;16.57;;;22.50;99.90;;;;;;5063660;28;20512;-81
2021/06/17 06:11:10;;;;;;;22.73;18.27;;;22.60;99.90;;;;;;5063355;28;20504;-82
2021/06/17 06:13:39;;;;;;;14.90;13.50;;;22.50;99.90;;;;;;5062237;28;20504;-82
2021/06/17 06:16:05;;;;;;;17.30;15.00;;;22.60;99.90;;;;;;5062720;28;20511;-82
2021/06/17 06:18:32;;;;;;;15.90;14.40;;;22.70;99.90;;;;;;5062648;28;20493;-82
2021/06/17 06:20:59;;;;;;;14.77;13.47;;;22.80;99.90;;;;;;5064491;28;20470;-82
2021/06/17 06:23:26;;;;;;;15.00;13.40;;;22.80;99.90;;;;;;5066603;28;20471;-80
2021/06/17 06:25:53;;;;;;;17.40;13.77;;;22.90;99.90;;;;;;5065367;28;20470;-81
2021/06/17 06:28:21;;;;;;;15.20;13.70;;;23.00;99.90;;;;;;5072041;28;20466;-81
2021/06/17 06:30:50;;;;;;;14.50;13.20;;;23.00;99.90;;;;;;5075668;28;20442;-81
2021/06/17 06:33:18;;;;;;;15.40;14.00;;;23.10;99.90;;;;;;5069739;28;20969;-81
2021/06/17 06:35:45;;;;;;;15.70;14.10;;;23.10;99.90;;;;;;5068811;28;20438;-82
2021/06/17 06:38:11;;;;;;;15.87;14.17;;;23.20;99.90;;;;;;5068568;28;20472;-82
2021/06/17 06:40:41;;;;;;;15.47;14.00;;;23.20;99.90;;;;;;5065767;28;20503;-81
2021/06/17 06:43:09;;;;;;;18.00;16.23;;;23.30;99.90;;;;;;5066742;28;20440;-82
2021/06/17 06:45:36;;;;;;;16.87;15.27;;;23.40;99.90;;;;;;5066334;28;20522;-81
2021/06/17 06:48:05;;;;;;;16.63;14.77;;;23.50;99.90;;;;;;5064527;28;20503;-82
2021/06/17 06:50:32;;;;;;;16.07;14.13;;;23.50;99.90;;;;;;5063772;28;20493;-82
2021/06/17 06:52:58;;;;;;;18.30;16.50;;;23.60;99.90;;;;;;5068056;28;20455;-81
2021/06/17 06:55:25;;;;;;;19.40;17.20;;;23.70;99.90;;;;;;5069906;28;20479;-82
2021/06/17 06:57:52;;;;;;;14.90;13.37;;;23.70;99.90;;;;;;5067040;28;20491;-82
2021/06/17 07:00:19;;;;;;;16.23;14.77;;;23.70;99.90;;;;;;5065349;28;20451;-82
2021/06/17 07:02:46;;;;;;;15.27;13.60;;;23.80;99.90;;;;;;5065187;28;20454;-82
2021/06/17 07:05:14;;;;;;;15.57;14.27;;;23.90;99.90;;;;;;5075325;28;20509;-81
2021/06/17 07:07:41;;;;;;;15.33;14.00;;;23.90;99.90;;;;;;5079546;28;20513;-82
2021/06/17 07:10:09;;;;;;;15.77;14.33;;;24.00;99.90;;;;;;5073993;28;20946;-81
2021/06/17 07:12:36;;;;;;;23.23;18.23;;;24.10;99.90;;;;;;5073442;28;20437;-81
2021/06/17 07:15:03;;;;;;;19.00;16.43;;;24.10;99.90;;;;;;5068102;28;20486;-82
2021/06/17 07:17:30;;;;;;;22.17;19.37;;;24.20;99.90;;;;;;5069403;28;20499;-82
2021/06/17 07:19:57;;;;;;;17.60;15.60;;;24.30;99.90;;;;;;5073322;28;20451;-81
2021/06/17 07:22:26;;;;;;;20.07;17.10;;;24.40;99.90;;;;;;5064098;28;20498;-81
2021/06/17 07:24:53;;;;;;;20.63;15.10;;;24.40;99.90;;;;;;5063268;28;20449;-81
2021/06/17 07:27:20;;;;;;;18.73;16.93;;;24.50;99.90;;;;;;5065078;28;20492;-81
2021/06/17 07:29:47;;;;;;;17.53;15.83;;;24.60;99.90;;;;;;5064350;28;20441;-81
2021/06/17 07:32:14;;;;;;;15.07;13.60;;;24.70;99.90;;;;;;5062035;28;20475;-81
2021/06/17 07:34:42;;;;;;;14.63;13.10;;;24.70;99.90;;;;;;5062775;28;20477;-81
2021/06/17 07:37:08;;;;;;;13.57;12.17;;;24.80;99.90;;;;;;5062868;28;21014;-81
2021/06/17 07:39:38;;;;;;;14.20;12.90;;;24.80;99.90;;;;;;5063336;28;20445;-81
2021/06/17 07:42:06;;;;;;;13.40;12.30;;;24.90;99.90;;;;;;5063300;28;20442;-82
2021/06/17 07:44:33;;;;;;;19.67;14.70;;;25.00;99.90;;;;;;5061870;28;20448;-81
2021/06/17 07:47:00;;;;;;;14.37;11.67;;;25.10;99.90;;;;;;5064024;28;20430;-81
2021/06/17 07:49:26;;;;;;;12.87;11.73;;;25.20;99.90;;;;;;5065459;28;20457;-81
2021/06/17 07:51:53;;;;;;;15.27;12.47;;;25.20;99.90;;;;;;5062385;28;20976;-81
2021/06/17 07:54:20;;;;;;;14.17;13.00;;;25.20;99.90;;;;;;5061814;28;20473;-81
2021/06/17 07:56:48;;;;;;;10.83;10.03;;;25.30;99.90;;;;;;5063480;28;20442;-80
2021/06/17 07:59:18;;;;;;;10.70;9.73;;;25.40;99.90;;;;;;5062933;28;20932;-81
2021/06/17 08:01:45;;;;;;;15.83;14.30;;;25.40;99.90;;;;;;5063062;28;20524;-81
2021/06/17 08:04:11;;;;;;;14.77;13.33;;;25.50;99.90;;;;;;5064100;28;20504;-82
2021/06/17 08:06:38;;;;;;;12.77;11.50;;;25.60;99.90;;;;;;5062298;28;20450;-81
2021/06/17 08:09:05;;;;;;;12.93;11.83;;;25.70;99.90;;;;;;5063285;28;20485;-81
2021/06/17 08:11:32;;;;;;;12.00;11.10;;;25.80;99.90;;;;;;5071411;28;20442;-82
2021/06/17 08:14:00;;;;;;;11.93;10.83;;;25.80;99.90;;;;;;5073939;28;20478;-82
2021/06/17 08:16:27;;;;;;;14.33;12.83;;;25.80;99.90;;;;;;5075054;28;20442;-81
2021/06/17 08:18:55;;;;;;;13.93;12.63;;;25.90;99.90;;;;;;5071314;28;20987;-81
2021/06/17 08:21:21;;;;;;;10.83;9.93;;;25.90;99.90;;;;;;5064137;28;20465;-81
2021/06/17 08:23:48;;;;;;;12.80;11.70;;;26.00;99.90;;;;;;5062652;28;20446;-81
2021/06/17 08:26:15;;;;;;;15.63;13.73;;;26.10;99.90;;;;;;5062698;28;20445;-82
2021/06/17 08:28:41;;;;;;;23.47;14.67;;;26.10;99.90;;;;;;5061954;28;20469;-81
2021/06/17 08:33:57;;;;;;;12.93;11.83;;;26.20;99.90;;;;;;5058831;28;20469;-82
2021/06/17 08:36:24;;;;;;;13.40;12.20;;;26.30;99.90;;;;;;5066389;28;20497;-82
2021/06/17 08:38:50;;;;;;;13.67;12.13;;;26.50;99.90;;;;;;5065697;28;20865;-82
2021/06/17 08:41:18;;;;;;;12.67;11.30;;;26.50;99.90;;;;;;5061697;28;20855;-82
2021/06/17 08:43:45;;;;;;;16.83;15.20;;;26.50;99.90;;;;;;5061656;28;20486;-82
2021/06/17 08:46:13;;;;;;;17.53;15.93;;;26.60;99.90;;;;;;5061027;28;20453;-82
2021/06/17 08:48:41;;;;;;;19.93;17.90;;;26.60;99.90;;;;;;5060860;28;20466;-81
2021/06/17 08:51:09;;;;;;;28.00;24.40;;;26.60;99.90;;;;;;5062572;28;20814;-81
2021/06/17 08:53:35;;;;;;;17.97;16.27;;;26.70;99.90;;;;;;5062117;28;20443;-81
2021/06/17 08:56:02;;;;;;;15.87;13.27;;;26.80;99.90;;;;;;5063005;28;20430;-82
2021/06/17 08:58:29;;;;;;;21.67;19.33;;;26.90;99.90;;;;;;5062457;28;20458;-81
2021/06/17 09:00:56;;;;;;;25.93;23.40;;;26.90;99.90;;;;;;5062608;28;20537;-82
2021/06/17 09:03:24;;;;;;;26.07;22.70;;;26.90;99.90;;;;;;5061905;28;20441;-82
2021/06/17 09:05:53;;;;;;;14.77;13.40;;;27.00;99.90;;;;;;5061967;28;20442;-82
2021/06/17 09:08:26;;;;;;;15.20;13.83;;;27.00;99.90;;;;;;5060563;28;20476;-82
2021/06/17 09:10:53;;;;;;;14.63;13.20;;;27.10;99.90;;;;;;5060968;28;20446;-82
2021/06/17 09:13:20;;;;;;;19.37;17.47;;;27.20;99.90;;;;;;5060906;28;20454;-82
2021/06/17 09:15:51;;;;;;;11.63;10.53;;;27.30;99.90;;;;;;5060729;28;21007;-82
2021/06/17 09:18:21;;;;;;;15.60;14.20;;;27.40;99.90;;;;;;5059941;28;20556;-81
2021/06/17 09:20:52;;;;;;;11.33;10.10;;;27.40;99.90;;;;;;5071018;28;20453;-81
2021/06/17 09:23:24;;;;;;;13.13;12.03;;;27.40;99.90;;;;;;5074443;28;20425;-81
2021/06/17 09:25:52;;;;;;;12.53;11.13;;;27.40;99.90;;;;;;5073441;28;20434;-81
2021/06/17 09:28:19;;;;;;;11.33;10.43;;;27.50;99.90;;;;;;5072684;28;20465;-82
2021/06/17 09:30:46;;;;;;;12.20;11.20;;;27.50;99.90;;;;;;5062901;28;20441;-82
2021/06/17 09:33:14;;;;;;;13.47;12.07;;;27.60;99.90;;;;;;5061462;28;20431;-81
2021/06/17 09:35:51;;;;;;;10.03;9.27;;;27.70;99.90;;;;;;5061501;28;20485;-81
2021/06/17 09:38:18;;;;;;;14.60;11.53;;;27.80;99.90;;;;;;5060648;28;20470;-81
2021/06/17 09:40:47;;;;;;;16.20;14.60;;;27.90;99.90;;;;;;5061851;28;20831;-82
2021/06/17 09:43:17;;;;;;;16.60;15.00;;;28.00;99.90;;;;;;5076199;28;20429;-81
2021/06/17 09:45:53;;;;;;;15.53;14.03;;;28.00;99.90;;;;;;5069315;28;20433;-82
2021/06/17 09:48:42;;;;;;;24.20;21.47;;;28.10;99.90;;;;;;5062614;28;20538;-82
2021/06/17 09:51:29;;;;;;;14.17;11.43;;;28.10;99.90;;;;;;5060891;28;20852;-82
2021/06/17 09:54:10;;;;;;;11.30;10.20;;;28.20;99.90;;;;;;5060814;28;20459;-82
2021/06/17 09:56:38;;;;;;;14.13;12.83;;;28.20;99.90;;;;;;5061024;28;20949;-81
2021/06/17 09:59:07;;;;;;;11.47;10.33;;;28.30;99.90;;;;;;5060980;28;20471;-81
2021/06/17 10:01:37;;;;;;;8.70;7.90;;;28.30;99.90;;;;;;5062948;28;20441;-82
2021/06/17 10:04:06;;;;;;;15.50;14.07;;;28.30;99.90;;;;;;5060185;28;20461;-81
2021/06/17 10:06:36;;;;;;;12.87;11.77;;;28.40;99.90;;;;;;5060792;28;20453;-82
2021/06/17 10:09:08;;;;;;;11.00;10.00;;;28.50;99.90;;;;;;5075307;22;20565;-83
2021/06/17 10:11:35;;;;;;;12.30;11.30;;;28.40;99.90;;;;;;5063489;28;20483;-82
2021/06/17 10:14:03;;;;;;;11.60;10.40;;;28.40;99.90;;;;;;5064226;28;20449;-83
2021/06/17 10:16:30;;;;;;;12.80;10.97;;;28.40;99.90;;;;;;5066034;28;20487;-83
2021/06/17 10:18:57;;;;;;;10.80;9.80;;;28.50;99.90;;;;;;5067306;28;20472;-83
2021/06/17 10:21:24;;;;;;;8.40;7.80;;;28.60;99.90;;;;;;5068458;28;20457;-83
2021/06/17 10:23:52;;;;;;;9.43;8.60;;;28.60;99.90;;;;;;5068873;28;20445;-83
2021/06/17 10:26:21;;;;;;;10.60;9.70;;;28.70;99.90;;;;;;5065341;28;20442;-83
2021/06/17 10:28:49;;;;;;;15.17;13.47;;;28.80;99.90;;;;;;5057316;28;20469;-83
2021/06/17 10:31:47;;;;;;;11.60;10.03;;;28.80;99.90;;;;;;5059766;28;20511;-85
2021/06/17 10:34:37;;;;;;;14.97;11.47;;;28.90;99.90;;;;;;5063448;28;20532;-84
2021/06/17 10:37:13;;;;;;;11.03;9.63;;;29.00;99.90;;;;;;5072799;28;20436;-83
2021/06/17 10:39:43;;;;;;;36.50;29.03;;;29.10;99.90;;;;;;5067772;28;21030;-84
2021/06/17 10:42:13;;;;;;;14.90;13.47;;;29.20;99.90;;;;;;5061222;28;20449;-84
2021/06/17 10:44:48;;;;;;;12.93;11.63;;;29.20;99.90;;;;;;5061072;28;20430;-84
2021/06/17 10:48:01;;;;;;;10.70;9.60;;;29.30;99.90;;;;;;5061042;28;20432;-83
2021/06/17 10:50:33;;;;;;;8.50;7.40;;;29.30;99.90;;;;;;5061058;28;20441;-83
2021/06/17 10:53:22;;;;;;;10.83;9.90;;;29.30;99.90;;;;;;5061777;28;20483;-84
2021/06/17 10:55:56;;;;;;;13.83;9.03;;;29.30;99.90;;;;;;5065270;28;20874;-84
2021/06/17 10:58:56;;;;;;;11.53;10.57;;;29.30;99.90;;;;;;5060842;28;20461;-83
2021/06/17 11:01:31;;;;;;;12.40;10.00;;;29.30;99.90;;;;;;5058393;28;20930;-85
2021/06/17 11:04:22;;;;;;;11.00;9.90;;;29.40;99.90;;;;;;5061458;28;20884;-85
2021/06/17 11:07:20;;;;;;;8.97;8.20;;;29.50;99.90;;;;;;5061997;28;20481;-83
2021/06/17 11:10:00;;;;;;;9.43;8.40;;;29.50;99.90;;;;;;5071986;28;20446;-83
2021/06/17 11:12:54;;;;;;;7.73;7.13;;;29.60;99.40;;;;;;5061017;28;20434;-83
2021/06/17 11:15:45;;;;;;;9.00;8.20;;;29.60;99.90;;;;;;5048920;28;20481;-83
2021/06/17 11:18:13;;;;;;;9.60;8.80;;;29.60;99.70;;;;;;5062318;28;20832;-82
2021/06/17 11:20:41;;;;;;;10.40;9.40;;;29.60;99.60;;;;;;5061989;28;20457;-83
2021/06/17 11:23:09;;;;;;;9.33;8.40;;;29.70;99.60;;;;;;5059931;28;20794;-84
2021/06/17 11:25:42;;;;;;;9.07;8.20;;;29.80;98.80;;;;;;5060435;28;20446;-84
2021/06/17 11:28:13;;;;;;;30.97;24.30;;;29.70;98.80;;;;;;5074379;28;20453;-83
2021/06/17 11:31:00;;;;;;;15.80;14.30;;;29.80;97.80;;;;;;5076389;28;20434;-83
2021/06/17 11:33:46;;;;;;;13.80;12.50;;;29.80;98.00;;;;;;5076366;28;20449;-83
2021/06/17 11:36:15;;;;;;;32.13;25.13;;;29.80;98.30;;;;;;5063120;28;20465;-84
2021/06/17 11:38:41;;;;;;;9.50;8.60;;;29.80;98.60;;;;;;5062445;28;20894;-84
2021/06/17 11:41:18;;;;;;;18.37;10.90;;;29.70;98.50;;;;;;5061761;28;20450;-83
2021/06/17 11:43:56;;;;;;;17.70;11.60;;;29.80;98.40;;;;;;5060778;28;20823;-84
2021/06/17 11:46:26;;;;;;;13.13;11.97;;;29.90;98.10;;;;;;5061054;28;20440;-83
2021/06/17 11:48:57;;;;;;;13.50;11.30;;;30.00;98.10;;;;;;5059595;28;20834;-83
2021/06/17 11:51:24;;;;;;;9.60;8.73;;;30.00;97.90;;;;;;5059906;28;20441;-83
2021/06/17 11:53:53;;;;;;;12.67;11.50;;;30.10;97.30;;;;;;5058318;28;20817;-83
2021/06/17 11:56:28;;;;;;;11.47;10.37;;;30.20;98.30;;;;;;5058998;28;20850;-83
2021/06/17 11:58:56;;;;;;;14.13;9.40;;;30.20;97.30;;;;;;5059560;28;20488;-83
2021/06/17 12:01:25;;;;;;;10.20;9.40;;;30.20;97.10;;;;;;5060780;28;20472;-83
2021/06/17 12:03:57;;;;;;;10.97;9.97;;;30.30;97.90;;;;;;5058469;28;20773;-83
2021/06/17 12:06:23;;;;;;;12.57;11.37;;;30.30;96.90;;;;;;5060168;28;20924;-84
2021/06/17 12:09:03;;;;;;;10.43;9.53;;;30.20;97.40;;;;;;5060584;28;20473;-83
2021/06/17 12:11:30;;;;;;;11.33;10.40;;;30.20;96.80;;;;;;5060023;28;20517;-83
2021/06/17 12:13:58;;;;;;;10.50;9.53;;;30.20;97.20;;;;;;5059814;28;20472;-83
2021/06/17 12:16:24;;;;;;;9.30;8.50;;;30.20;95.40;;;;;;5059278;28;20853;-83
2021/06/17 12:18:52;;;;;;;9.10;8.37;;;30.30;96.30;;;;;;5059232;28;20816;-84
2021/06/17 12:21:23;;;;;;;8.40;7.60;;;30.40;96.90;;;;;;5059066;28;20449;-83
2021/06/17 12:23:49;;;;;;;8.40;7.60;;;30.40;96.00;;;;;;5058981;28;20482;-83
2021/06/17 12:26:16;;;;;;;9.27;8.53;;;30.40;95.50;;;;;;5058607;28;20469;-83
2021/06/17 12:28:53;;;;;;;8.60;7.80;;;30.40;95.70;;;;;;5059526;28;20520;-83
2021/06/17 12:31:29;;;;;;;8.00;7.30;;;30.40;95.40;;;;;;5057350;28;20465;-83
2021/06/17 12:34:07;;;;;;;11.50;7.30;;;30.40;95.40;;;;;;5058554;28;20433;-83
2021/06/17 12:36:34;;;;;;;8.30;7.50;;;30.50;95.20;;;;;;5057985;28;20892;-83
2021/06/17 12:39:12;;;;;;;9.23;8.43;;;30.50;94.80;;;;;;5058825;28;20469;-83
2021/06/17 12:41:44;;;;;;;8.83;7.70;;;30.50;94.10;;;;;;5058735;28;20437;-83
2021/06/17 12:44:11;;;;;;;7.80;7.10;;;30.50;94.30;;;;;;5056944;28;20522;-83
2021/06/17 12:46:40;;;;;;;10.03;7.10;;;30.50;93.80;;;;;;5057538;28;20446;-83
2021/06/17 12:49:25;;;;;;;10.87;7.90;;;30.50;93.60;;;;;;5064037;28;20493;-83
2021/06/17 12:52:05;;;;;;;7.60;6.90;;;30.50;91.70;;;;;;5065733;28;20441;-84